createdAt,value
2022-11-16T00:01:03.642Z,121.38
2022-11-16T00:06:28.599Z,106.10
2022-11-16T00:11:56.378Z,126.32
2022-11-16T00:17:19.991Z,114.32
2022-11-16T00:22:43.668Z,98.07
2022-11-16T00:28:08.881Z,85.82
2022-11-16T00:33:32.605Z,85.95
2022-11-16T00:38:56.244Z,87.35
2022-11-16T00:44:21.212Z,84.97
2022-11-16T00:49:44.921Z,80.38
2022-11-16T00:55:09.553Z,81.30
2022-11-16T01:00:35.273Z,84.05
2022-11-16T01:06:02.191Z,92.72
2022-11-16T01:11:43.675Z,81.85
2022-11-16T01:17:09.142Z,84.03
2022-11-16T01:22:36.795Z,91.70
2022-11-16T01:28:00.437Z,105.38
2022-11-16T01:33:36.996Z,88.65
2022-11-16T01:39:01.572Z,96.00
2022-11-16T01:45:07.359Z,87.30
2022-11-16T01:50:32.528Z,85.32
2022-11-16T01:55:56.306Z,89.85
2022-11-16T02:01:25.366Z,92.15
2022-11-16T02:07:03.197Z,93.65
2022-11-16T02:12:50.111Z,97.93
2022-11-16T02:18:25.970Z,85.35
2022-11-16T02:24:10.664Z,84.43
2022-11-16T02:29:38.942Z,97.53
2022-11-16T02:35:08.517Z,97.43
2022-11-16T02:40:34.334Z,78.80
2022-11-16T02:46:03.462Z,92.00
2022-11-16T02:51:30.190Z,81.55
2022-11-16T02:56:58.295Z,83.63
2022-11-16T03:02:33.936Z,82.20
2022-11-16T03:08:07.939Z,80.25
2022-11-16T03:13:35.397Z,73.57
2022-11-16T03:19:03.645Z,75.22
2022-11-16T03:24:27.916Z,72.05
2022-11-16T03:30:01.035Z,82.38
2022-11-16T03:35:30.572Z,76.68
2022-11-16T03:40:59.387Z,77.50
2022-11-16T03:46:23.318Z,79.47
2022-11-16T03:51:49.962Z,58.85
2022-11-16T03:57:18.087Z,66.30
2022-11-16T04:02:47.222Z,72.15
2022-11-16T04:08:36.374Z,59.33
2022-11-16T04:14:18.753Z,57.40
2022-11-16T04:19:59.838Z,57.58
2022-11-16T04:25:32.002Z,60.25
2022-11-16T04:31:16.253Z,78.23
2022-11-16T04:37:03.498Z,92.95
2022-11-16T04:42:29.621Z,76.70
2022-11-16T04:47:54.559Z,58.63
2022-11-16T04:53:27.051Z,68.22
2022-11-16T04:59:21.276Z,85.97
2022-11-16T05:04:45.589Z,104.90
2022-11-16T05:10:10.179Z,90.47
2022-11-16T05:15:35.954Z,116.63
2022-11-16T05:21:04.302Z,117.55
2022-11-16T05:26:33.385Z,102.40
2022-11-16T05:31:59.818Z,97.50
2022-11-16T05:37:26.626Z,111.70
2022-11-16T05:42:50.409Z,135.23
2022-11-16T05:48:17.204Z,181.75
2022-11-16T05:53:41.312Z,111.35
2022-11-16T05:59:05.151Z,113.03
2022-11-16T06:04:30.690Z,127.47
2022-11-16T06:09:54.540Z,150.73
2022-11-16T06:15:19.221Z,134.57
2022-11-16T06:20:44.311Z,138.32
2022-11-16T06:26:08.613Z,175.23
2022-11-16T06:31:33.149Z,171.10
2022-11-16T06:37:00.454Z,223.48
2022-11-16T06:42:24.610Z,146.35
2022-11-16T06:47:50.586Z,189.70
2022-11-16T06:53:16.034Z,214.63
2022-11-16T06:58:42.801Z,201.77
2022-11-16T07:04:11.862Z,136.52
2022-11-16T07:09:39.690Z,135.30
2022-11-16T07:15:03.419Z,157.68
2022-11-16T07:20:29.042Z,121.40
2022-11-16T07:25:54.317Z,159.98
2022-11-16T07:31:28.683Z,137.40
2022-11-16T07:37:10.850Z,206.95
2022-11-16T07:42:36.224Z,152.00
2022-11-16T07:48:10.114Z,162.13
2022-11-16T07:54:08.580Z,160.88
2022-11-16T07:59:33.707Z,162.20
2022-11-16T08:04:59.028Z,129.68
2022-11-16T08:10:25.431Z,167.15
2022-11-16T08:15:51.674Z,154.88
2022-11-16T08:21:17.656Z,117.82
2022-11-16T08:26:42.202Z,144.02
2022-11-16T08:32:10.316Z,134.40
2022-11-16T08:37:34.261Z,132.50
2022-11-16T08:42:58.958Z,138.10
2022-11-16T08:48:24.609Z,133.68
2022-11-16T08:53:49.797Z,203.13
2022-11-16T08:59:15.079Z,174.68
2022-11-16T09:04:45.810Z,130.00
2022-11-16T09:10:10.467Z,149.30
2022-11-16T09:15:34.160Z,124.05
2022-11-16T09:20:59.281Z,137.02
2022-11-16T09:26:23.791Z,170.00
2022-11-16T09:31:47.420Z,131.73
2022-11-16T09:37:12.419Z,140.82
2022-11-16T09:42:53.729Z,145.48
2022-11-16T09:48:19.414Z,132.10
2022-11-16T09:53:48.643Z,139.07
2022-11-16T09:59:22.888Z,128.00
2022-11-16T10:04:57.933Z,120.68
2022-11-16T10:10:33.233Z,111.95
2022-11-16T10:16:06.555Z,127.10
2022-11-16T10:21:49.374Z,116.43
2022-11-16T10:27:41.591Z,119.25
2022-11-16T10:33:11.339Z,128.65
2022-11-16T10:38:35.444Z,115.22
2022-11-16T10:44:00.766Z,122.13
2022-11-16T10:49:34.378Z,112.82
2022-11-16T10:54:57.959Z,119.53
2022-11-16T11:00:36.207Z,124.35
2022-11-16T11:06:00.132Z,117.05
2022-11-16T11:11:42.475Z,109.60
2022-11-16T11:17:14.583Z,97.22
2022-11-16T11:22:45.005Z,101.80
2022-11-16T11:28:19.479Z,91.55
2022-11-16T11:33:50.930Z,99.60
2022-11-16T11:44:59.418Z,105.13
2022-11-16T11:50:34.333Z,94.32
2022-11-16T11:55:59.797Z,95.60
2022-11-16T12:01:42.878Z,91.03
2022-11-16T12:07:17.466Z,82.72
2022-11-16T12:12:55.630Z,85.93
2022-11-16T12:18:37.139Z,84.93
2022-11-16T12:24:18.032Z,93.75
2022-11-16T12:29:52.496Z,91.68
2022-11-16T12:35:29.532Z,86.88
2022-11-16T12:41:08.196Z,79.95
2022-11-16T12:46:46.147Z,76.05
2022-11-16T12:52:41.193Z,62.50
2022-11-16T12:58:20.371Z,59.65
2022-11-16T13:03:48.546Z,53.20
2022-11-16T13:09:16.754Z,56.53
2022-11-16T13:14:44.803Z,50.92
2022-11-16T13:20:26.625Z,49.72
2022-11-16T13:25:53.889Z,48.03
2022-11-16T13:31:26.421Z,51.33
2022-11-16T13:36:50.101Z,41.00
2022-11-16T13:42:14.455Z,53.72
2022-11-16T13:47:39.557Z,59.00
2022-11-16T13:54:43.142Z,52.63
2022-11-16T13:58:51.094Z,81.22
2022-11-16T14:04:41.788Z,89.38
2022-11-16T14:10:08.032Z,89.93
2022-11-16T14:15:34.950Z,110.40
2022-11-16T14:21:08.091Z,72.40
2022-11-16T14:26:45.987Z,81.13
2022-11-16T14:32:20.895Z,53.80
2022-11-16T14:37:45.875Z,35.30
2022-11-16T14:43:18.973Z,29.63
2022-11-16T14:48:45.957Z,28.55
2022-11-16T14:54:16.928Z,22.70
2022-11-16T14:59:40.627Z,24.30
2022-11-16T15:05:04.447Z,50.85
2022-11-16T15:10:30.736Z,47.22
2022-11-16T15:16:10.338Z,27.73
2022-11-16T15:21:34.077Z,21.15
2022-11-16T15:27:10.291Z,17.55
2022-11-16T15:32:38.277Z,18.25
2022-11-16T15:38:08.281Z,18.88
2022-11-16T15:44:01.474Z,30.10
2022-11-16T15:49:30.364Z,26.25
2022-11-16T15:55:04.920Z,25.48
2022-11-16T16:00:31.584Z,24.35
2022-11-16T16:05:56.394Z,21.17
2022-11-16T16:11:28.751Z,21.15
2022-11-16T16:16:54.672Z,18.80
2022-11-16T16:22:27.365Z,18.77
2022-11-16T16:27:51.138Z,33.55
2022-11-16T16:33:19.917Z,28.42
2022-11-16T16:38:43.852Z,31.15
2022-11-16T16:44:14.559Z,22.08
2022-11-16T16:49:39.631Z,24.08
2022-11-16T16:55:03.431Z,22.95
2022-11-16T17:00:30.969Z,24.60
2022-11-16T17:06:02.313Z,28.80
2022-11-16T17:11:26.034Z,22.70
2022-11-16T17:16:49.676Z,19.67
2022-11-16T17:22:14.856Z,25.13
2022-11-16T17:27:38.432Z,19.58
2022-11-16T17:33:02.111Z,18.80
2022-11-16T17:38:27.132Z,19.85
2022-11-16T17:43:53.681Z,20.85
2022-11-16T17:49:17.329Z,21.80
2022-11-16T17:54:42.372Z,25.13
2022-11-16T18:00:07.530Z,19.70
2022-11-16T18:05:31.301Z,17.02
2022-11-16T18:10:56.311Z,16.75
2022-11-16T18:16:21.664Z,15.05
2022-11-16T18:21:45.575Z,17.92
2022-11-16T18:27:10.606Z,18.70
2022-11-16T18:32:34.265Z,25.42
2022-11-16T18:37:57.975Z,24.65
2022-11-16T18:43:22.950Z,25.00
2022-11-16T18:48:46.850Z,22.00
2022-11-16T18:54:10.579Z,22.08
2022-11-16T18:59:35.702Z,21.40
2022-11-16T19:04:59.359Z,19.23
2022-11-16T19:10:23.202Z,17.20
2022-11-16T19:15:48.243Z,23.05
2022-11-16T19:21:13.495Z,36.70
2022-11-16T19:26:37.239Z,29.80
2022-11-16T19:32:02.531Z,21.83
2022-11-16T19:37:26.239Z,21.27
2022-11-16T19:42:49.972Z,19.73
2022-11-16T19:48:15.188Z,14.73
2022-11-16T19:53:40.358Z,19.60
2022-11-16T19:59:04.242Z,19.23
2022-11-16T20:04:33.660Z,21.50
2022-11-16T20:09:58.437Z,21.42
2022-11-16T20:15:23.899Z,18.67
2022-11-16T20:20:48.971Z,17.13
2022-11-16T20:26:14.724Z,16.90
2022-11-16T20:31:42.472Z,25.98
2022-11-16T20:37:08.616Z,19.05
2022-11-16T20:42:32.261Z,25.70
2022-11-16T20:47:56.039Z,21.77
2022-11-16T20:53:22.268Z,24.88
2022-11-16T20:58:46.399Z,23.42
2022-11-16T21:04:10.917Z,24.75
2022-11-16T21:09:56.357Z,29.80
2022-11-16T21:15:20.308Z,39.20
2022-11-16T21:20:44.024Z,44.85
2022-11-16T21:26:13.248Z,47.55
2022-11-16T21:31:38.103Z,45.97
2022-11-16T21:37:01.734Z,48.08
2022-11-16T21:42:29.496Z,51.83
2022-11-16T21:47:53.112Z,50.85
2022-11-16T21:53:16.703Z,41.53
2022-11-16T21:58:42.066Z,41.50
2022-11-16T22:04:23.133Z,39.60
2022-11-16T22:09:46.892Z,45.92
2022-11-16T22:15:12.439Z,47.92
2022-11-16T22:20:36.217Z,52.10
2022-11-16T22:26:03.089Z,49.63
2022-11-16T22:31:28.336Z,47.25
2022-11-16T22:36:51.953Z,57.15
2022-11-16T22:42:15.527Z,49.47
2022-11-16T22:47:40.551Z,48.88
2022-11-16T22:53:04.409Z,45.65
2022-11-16T22:58:28.041Z,46.67
2022-11-16T23:03:53.107Z,44.55
2022-11-16T23:09:16.785Z,42.75
2022-11-16T23:14:57.949Z,43.50
2022-11-16T23:20:40.733Z,42.70
2022-11-16T23:26:23.702Z,44.05
2022-11-16T23:31:47.290Z,40.88
2022-11-16T23:37:12.545Z,38.80
2022-11-16T23:42:53.998Z,42.35
2022-11-16T23:48:19.024Z,44.58
2022-11-16T23:53:44.010Z,48.53
2022-11-16T23:59:07.693Z,48.65
